createdAt,value
2018-07-25T00:01:52.673Z,23.10
2018-07-25T00:06:55.842Z,23.30
2018-07-25T00:17:01.966Z,23.40
2018-07-25T00:22:05.146Z,23.20
2018-07-25T00:37:14.212Z,23.30
2018-07-25T00:42:17.399Z,23.30
2018-07-25T00:47:20.562Z,23.30
2018-07-25T00:52:23.727Z,23.20
2018-07-25T00:57:26.898Z,23.10
2018-07-25T01:02:30.098Z,23.10
2018-07-25T01:07:33.339Z,23.10
2018-07-25T01:12:36.616Z,23.00
2018-07-25T01:17:39.971Z,23.00
2018-07-25T01:22:43.178Z,22.90
2018-07-25T01:27:46.406Z,22.90
2018-07-25T01:32:49.618Z,22.70
2018-07-25T01:37:52.865Z,22.70
2018-07-25T01:42:56.134Z,22.80
2018-07-25T01:47:59.342Z,22.70
2018-07-25T01:58:05.551Z,22.70
2018-07-25T02:03:08.906Z,22.80
2018-07-25T02:08:12.135Z,22.60
2018-07-25T02:18:19.582Z,22.60
2018-07-25T02:28:25.726Z,22.60
2018-07-25T02:33:34.330Z,22.70
2018-07-25T02:38:37.515Z,22.70
2018-07-25T02:43:40.796Z,22.60
2018-07-25T02:48:43.871Z,22.70
2018-07-25T02:53:47.054Z,22.60
2018-07-25T02:58:50.235Z,22.60
2018-07-25T03:03:53.442Z,22.60
2018-07-25T03:08:56.685Z,22.70
2018-07-25T03:13:59.865Z,22.60
2018-07-25T03:19:03.112Z,22.40
2018-07-25T03:24:06.294Z,22.30
2018-07-25T03:29:09.531Z,22.20
2018-07-25T03:34:12.800Z,22.40
2018-07-25T03:39:15.990Z,22.50
2018-07-25T03:44:19.285Z,22.50
2018-07-25T03:49:22.463Z,22.40
2018-07-25T03:54:25.690Z,22.40
2018-07-25T03:59:28.890Z,22.40
2018-07-25T04:04:32.100Z,22.30
2018-07-25T04:09:35.379Z,22.30
2018-07-25T04:14:38.621Z,22.30
2018-07-25T04:24:44.843Z,22.40
2018-07-25T14:12:48.730Z,33.90
2018-07-25T14:17:52.435Z,34.00
2018-07-25T14:27:58.941Z,34.30
2018-07-25T14:33:02.394Z,34.50
2018-07-25T14:38:06.330Z,34.60
2018-07-25T14:43:09.671Z,34.80
2018-07-25T14:48:13.063Z,34.50
2018-07-25T14:53:16.327Z,34.40
2018-07-25T14:58:19.585Z,34.50
2018-07-25T15:03:22.848Z,34.60
2018-07-25T15:08:26.503Z,34.70
2018-07-25T15:13:30.185Z,34.40
2018-07-25T15:18:33.482Z,34.30
2018-07-25T15:24:03.486Z,34.30
2018-07-25T15:29:06.697Z,34.40
2018-07-25T15:34:09.899Z,34.40
2018-07-25T15:39:17.723Z,34.10
2018-07-25T15:44:22.031Z,34.40
2018-07-25T15:49:26.284Z,34.50
2018-07-25T15:54:29.812Z,34.70
2018-07-25T15:59:33.191Z,34.70
2018-07-25T16:04:36.491Z,34.90
2018-07-25T16:09:39.845Z,34.90
2018-07-25T16:14:43.031Z,34.80
2018-07-25T16:19:46.386Z,34.70
2018-07-25T16:24:49.581Z,34.90
2018-07-25T16:29:52.814Z,34.40
2018-07-25T16:34:56.003Z,29.70
2018-07-25T16:39:59.746Z,28.20
2018-07-25T16:45:03.122Z,26.80
2018-07-25T16:50:06.318Z,26.80
2018-07-25T16:55:09.507Z,26.70
2018-07-25T17:00:12.702Z,25.80
2018-07-25T17:05:16.214Z,25.60
2018-07-25T17:15:22.909Z,26.20
2018-07-25T17:20:26.449Z,25.50
2018-07-25T17:25:30.163Z,24.00
2018-07-25T17:30:33.391Z,23.10
2018-07-25T17:35:36.598Z,22.20
2018-07-25T17:40:40.222Z,21.90
2018-07-25T17:45:43.551Z,21.20
2018-07-25T17:55:50.579Z,19.90
2018-07-25T18:00:53.975Z,19.70
2018-07-25T18:05:57.274Z,19.60
2018-07-25T18:11:01.640Z,19.90
2018-07-25T18:16:04.979Z,20.10
2018-07-25T18:21:08.374Z,20.20
2018-07-25T18:26:11.918Z,20.30
2018-07-25T18:31:15.610Z,20.30
2018-07-25T18:36:18.968Z,20.30
2018-07-25T18:41:22.342Z,20.40
2018-07-25T18:46:25.694Z,20.40
2018-07-25T18:51:29.042Z,20.40
2018-07-25T18:56:32.242Z,20.40
2018-07-25T19:01:35.548Z,20.50
2018-07-25T19:06:38.802Z,21.00
2018-07-25T19:11:42.047Z,20.90
2018-07-25T19:21:48.731Z,20.80
2018-07-25T19:26:52.149Z,20.60
2018-07-25T19:31:55.371Z,20.60
2018-07-25T19:36:58.718Z,20.50
2018-07-25T19:42:01.926Z,20.60
2018-07-25T19:47:05.583Z,20.60
2018-07-25T19:52:08.942Z,20.60
2018-07-25T19:57:12.881Z,20.50
2018-07-25T20:02:16.246Z,20.40
2018-07-25T20:12:22.459Z,20.60
2018-07-25T20:17:26.033Z,20.70
2018-07-25T20:22:29.288Z,20.80
2018-07-25T20:27:32.463Z,20.90
2018-07-25T20:32:35.661Z,20.90
2018-07-25T20:37:38.838Z,21.20
2018-07-25T20:42:42.317Z,21.20
2018-07-25T20:47:45.503Z,21.20
2018-07-25T20:52:48.683Z,21.40
2018-07-25T20:57:51.910Z,21.40
2018-07-25T21:02:55.095Z,21.50
2018-07-25T21:07:58.290Z,21.50
2018-07-25T21:13:01.466Z,21.50
2018-07-25T21:18:04.819Z,21.30
2018-07-25T21:23:08.014Z,21.30
2018-07-25T21:33:14.171Z,21.40
2018-07-25T21:38:17.368Z,21.30
2018-07-25T21:43:20.678Z,21.30
2018-07-25T21:48:23.878Z,21.20
2018-07-25T21:53:27.051Z,21.10
2018-07-25T21:58:30.218Z,21.20
2018-07-25T22:03:33.766Z,21.20
2018-07-25T22:08:36.979Z,21.10
2018-07-25T22:13:45.560Z,21.20
2018-07-25T22:18:48.738Z,21.10
2018-07-25T22:23:51.911Z,21.10
2018-07-25T22:28:55.178Z,21.00
2018-07-25T22:33:58.361Z,21.10
2018-07-25T22:39:01.547Z,21.20
2018-07-25T22:44:04.722Z,21.30
2018-07-25T22:49:07.903Z,21.30
2018-07-25T22:54:11.074Z,21.30
2018-07-25T22:59:14.258Z,21.20
2018-07-25T23:04:17.514Z,21.20
2018-07-25T23:09:20.706Z,21.20
2018-07-25T23:14:23.915Z,21.10
2018-07-25T23:19:27.140Z,21.10
2018-07-25T23:24:30.336Z,21.30
2018-07-25T23:29:33.626Z,21.40
2018-07-25T23:34:36.750Z,21.40
2018-07-25T23:39:39.942Z,21.40
2018-07-25T23:44:43.134Z,21.30
2018-07-25T23:49:46.318Z,21.30
2018-07-25T23:54:49.526Z,21.30
2018-07-25T23:59:52.733Z,21.40
